Time;durP1;ratioP1;P1;durP2;ratioP2;P2;SDS_P1;SDS_P2;PMS_P1;PMS_P2;Temp;Humidity;BMP_temperature;BMP_pressure;BME280_temperature;BME280_humidity;BME280_pressure;Samples;Min_cycle;Max_cycle;Signal;HPM_P1;HPM_P2
2020/12/25 00:01:26;;;;;;;11.73;2.17;;;3.20;93.00;;;;;;5047701;28;20065;-64
2020/12/25 00:03:52;;;;;;;12.38;2.42;;;3.20;93.00;;;;;;5048007;28;20057;-64
2020/12/25 00:06:18;;;;;;;11.82;2.05;;;3.10;92.90;;;;;;5047535;28;20144;-64
2020/12/25 00:08:45;;;;;;;8.48;1.83;;;3.10;93.10;;;;;;5034206;28;20049;-64
2020/12/25 00:11:11;;;;;;;8.68;2.40;;;3.00;93.10;;;;;;5047605;28;20057;-64
2020/12/25 00:13:36;;;;;;;9.35;2.25;;;2.90;93.10;;;;;;5046796;28;20045;-64
2020/12/25 00:16:02;;;;;;;7.90;2.30;;;2.80;93.30;;;;;;5046959;28;20099;-64
2020/12/25 00:18:28;;;;;;;7.82;2.10;;;2.80;93.90;;;;;;5034109;28;20052;-64
2020/12/25 00:20:54;;;;;;;11.57;2.35;;;2.80;93.60;;;;;;5048008;28;20041;-64
2020/12/25 00:23:20;;;;;;;11.23;1.83;;;2.70;93.70;;;;;;5047845;28;20046;-64
2020/12/25 00:25:47;;;;;;;8.00;1.80;;;2.70;93.70;;;;;;5027669;28;20061;-64
2020/12/25 00:28:13;;;;;;;8.50;1.63;;;2.70;93.70;;;;;;5028766;28;20048;-64
2020/12/25 00:30:43;;;;;;;9.27;2.20;;;2.70;93.70;;;;;;5027077;28;20069;-64
2020/12/25 00:33:10;;;;;;;11.97;2.20;;;2.70;93.80;;;;;;5027245;28;20128;-64
2020/12/25 00:35:36;;;;;;;13.18;1.90;;;2.70;93.60;;;;;;5026625;28;20301;-64
2020/12/25 00:38:02;;;;;;;10.23;1.90;;;2.70;93.50;;;;;;5041977;28;20057;-64
2020/12/25 00:40:27;;;;;;;12.63;2.58;;;2.70;93.70;;;;;;5046925;28;20041;-64
2020/12/25 00:42:53;;;;;;;11.65;1.95;;;2.70;93.70;;;;;;5046932;28;20054;-64
2020/12/25 00:45:19;;;;;;;6.93;2.00;;;2.70;93.90;;;;;;5046866;28;20045;-64
2020/12/25 00:47:45;;;;;;;16.48;2.35;;;2.70;93.90;;;;;;5046806;28;20048;-64
2020/12/25 00:50:11;;;;;;;13.23;2.33;;;2.60;93.80;;;;;;5046086;28;20041;-64
2020/12/25 00:52:37;;;;;;;14.52;2.55;;;2.50;93.80;;;;;;5046660;28;20049;-64
2020/12/25 00:55:03;;;;;;;12.27;2.72;;;2.40;94.00;;;;;;5035545;28;20129;-64
2020/12/25 00:57:29;;;;;;;9.68;2.10;;;2.40;94.30;;;;;;5053943;28;20052;-64
2020/12/25 00:59:55;;;;;;;11.07;2.03;;;2.40;94.60;;;;;;5045931;28;20053;-64
2020/12/25 01:02:22;;;;;;;9.35;2.17;;;2.40;94.50;;;;;;5046483;28;20053;-64
2020/12/25 01:04:48;;;;;;;13.27;1.98;;;2.40;94.40;;;;;;5046193;28;20049;-64
2020/12/25 01:07:13;;;;;;;11.63;1.90;;;2.40;94.50;;;;;;5046305;28;20507;-64
2020/12/25 01:09:39;;;;;;;9.70;1.95;;;2.40;94.50;;;;;;5046130;28;20042;-64
2020/12/25 01:12:05;;;;;;;10.18;1.88;;;2.30;94.60;;;;;;5038115;28;20054;-64
2020/12/25 01:14:31;;;;;;;13.85;1.92;;;2.30;94.40;;;;;;5041324;28;20057;-64
2020/12/25 01:16:57;;;;;;;8.80;1.83;;;2.30;94.60;;;;;;5046229;28;20131;-64
2020/12/25 01:19:27;;;;;;;7.60;2.10;;;2.30;94.70;;;;;;5045857;28;20048;-64
2020/12/25 01:21:53;;;;;;;10.25;2.20;;;2.30;94.60;;;;;;5045808;28;20057;-64
2020/12/25 01:24:19;;;;;;;7.75;1.75;;;2.20;94.00;;;;;;5045893;28;20103;-64
2020/12/25 01:26:45;;;;;;;9.75;1.60;;;1.90;94.00;;;;;;5045942;28;20060;-64
2020/12/25 01:29:12;;;;;;;10.18;1.80;;;1.80;94.40;;;;;;5035059;28;20045;-64
2020/12/25 01:31:37;;;;;;;15.32;1.92;;;1.70;94.60;;;;;;5026349;28;20112;-64
2020/12/25 01:34:03;;;;;;;14.38;1.80;;;1.60;94.80;;;;;;5025963;28;20947;-64
2020/12/25 01:36:29;;;;;;;9.85;1.70;;;1.60;95.20;;;;;;5045540;28;20056;-64
2020/12/25 01:38:55;;;;;;;11.48;2.38;;;1.60;95.70;;;;;;5045446;28;20061;-64
2020/12/25 01:41:21;;;;;;;8.82;1.52;;;1.50;95.50;;;;;;5045710;28;20038;-64
2020/12/25 01:43:47;;;;;;;11.18;1.73;;;1.50;95.80;;;;;;5045738;28;20076;-64
2020/12/25 01:46:14;;;;;;;18.17;2.30;;;1.50;95.60;;;;;;5045637;28;20049;-64
2020/12/25 01:48:41;;;;;;;9.77;1.52;;;1.40;95.50;;;;;;5045691;28;20128;-64
2020/12/25 01:51:08;;;;;;;14.07;2.35;;;1.40;95.60;;;;;;5044783;28;20532;-64
2020/12/25 01:53:35;;;;;;;11.20;2.13;;;1.50;95.90;;;;;;5045606;28;20063;-64
2020/12/25 01:56:02;;;;;;;9.98;2.08;;;1.40;95.70;;;;;;5045500;28;20049;-64
2020/12/25 01:58:30;;;;;;;12.43;1.73;;;1.50;96.00;;;;;;5045255;28;20057;-64
2020/12/25 02:00:57;;;;;;;9.57;2.00;;;1.60;96.20;;;;;;5045043;28;20107;-64
2020/12/25 02:03:23;;;;;;;7.70;1.55;;;1.60;96.20;;;;;;5033364;28;20058;-64
2020/12/25 02:05:48;;;;;;;12.43;1.88;;;1.70;96.10;;;;;;5044047;28;20076;-64
2020/12/25 02:08:15;;;;;;;10.98;1.83;;;2.00;95.70;;;;;;5045489;28;20072;-64
2020/12/25 02:10:42;;;;;;;7.97;1.25;;;2.00;95.60;;;;;;5045483;28;20042;-64
2020/12/25 02:13:08;;;;;;;8.48;2.00;;;2.30;95.40;;;;;;5045095;28;20050;-64
2020/12/25 02:15:35;;;;;;;8.15;1.25;;;2.40;95.20;;;;;;5044987;28;20081;-64
2020/12/25 02:18:01;;;;;;;9.00;1.48;;;2.80;94.80;;;;;;5045256;28;20409;-65
2020/12/25 02:20:28;;;;;;;5.00;1.20;;;2.90;94.30;;;;;;5044586;28;20048;-64
2020/12/25 02:22:54;;;;;;;6.35;1.30;;;3.10;94.10;;;;;;5045292;28;20045;-64
2020/12/25 02:25:20;;;;;;;11.32;2.03;;;3.00;94.30;;;;;;5043381;28;20049;-64
2020/12/25 02:27:46;;;;;;;6.30;1.55;;;3.00;94.40;;;;;;5028034;28;20048;-64
2020/12/25 02:30:14;;;;;;;6.85;1.55;;;3.00;94.50;;;;;;5026047;28;20046;-64
2020/12/25 02:32:40;;;;;;;9.35;1.50;;;3.00;94.70;;;;;;5044922;28;20052;-64
2020/12/25 02:35:06;;;;;;;5.32;1.30;;;3.00;94.90;;;;;;5045858;28;20076;-64
2020/12/25 02:37:32;;;;;;;8.27;1.27;;;2.90;95.00;;;;;;5049035;28;20053;-64
2020/12/25 02:39:58;;;;;;;4.32;1.42;;;2.90;95.00;;;;;;5048795;28;20052;-64
2020/12/25 02:42:24;;;;;;;2.80;1.15;;;2.80;94.80;;;;;;5048952;28;20064;-64
2020/12/25 02:44:49;;;;;;;7.22;1.40;;;2.70;94.70;;;;;;5049092;28;20050;-64
2020/12/25 02:47:15;;;;;;;4.88;1.00;;;2.60;95.00;;;;;;5048976;28;20042;-64
2020/12/25 02:49:41;;;;;;;5.80;1.10;;;2.50;94.90;;;;;;5048812;28;20053;-64
2020/12/25 02:52:07;;;;;;;6.07;1.50;;;2.40;95.10;;;;;;5048440;28;20098;-64
2020/12/25 02:54:32;;;;;;;6.05;1.67;;;2.30;94.90;;;;;;5049229;28;20076;-64
2020/12/25 02:56:58;;;;;;;6.13;1.00;;;2.20;95.10;;;;;;5051389;28;20057;-64
2020/12/25 02:59:25;;;;;;;4.50;1.23;;;2.00;95.10;;;;;;5048599;28;20080;-64
2020/12/25 03:01:52;;;;;;;7.57;1.92;;;2.00;95.20;;;;;;5048420;28;20049;-64
2020/12/25 03:04:18;;;;;;;5.25;1.30;;;2.10;96.40;;;;;;5048670;28;20128;-64
2020/12/25 03:06:44;;;;;;;4.80;1.10;;;2.10;96.20;;;;;;5048446;28;20052;-64
2020/12/25 03:09:11;;;;;;;8.10;1.15;;;2.10;96.10;;;;;;5037382;28;20057;-64
2020/12/25 03:11:37;;;;;;;6.95;1.27;;;2.00;95.90;;;;;;5046111;28;20057;-64
2020/12/25 03:14:03;;;;;;;5.70;1.75;;;2.00;96.10;;;;;;5048464;28;20053;-64
2020/12/25 03:16:30;;;;;;;6.03;1.10;;;2.00;96.20;;;;;;5048340;28;20045;-64
2020/12/25 03:18:56;;;;;;;3.35;0.98;;;2.00;96.40;;;;;;5048215;28;20050;-64
2020/12/25 03:21:22;;;;;;;5.60;1.25;;;2.00;96.40;;;;;;5048139;28;20045;-64
2020/12/25 03:23:48;;;;;;;4.30;0.93;;;2.00;96.40;;;;;;5048352;28;20046;-64
2020/12/25 03:26:17;;;;;;;5.18;1.77;;;2.10;96.70;;;;;;5048523;28;20551;-64
2020/12/25 03:28:44;;;;;;;6.57;1.30;;;2.20;96.60;;;;;;5048811;28;20049;-64
2020/12/25 03:31:10;;;;;;;4.22;1.55;;;2.20;96.50;;;;;;5047717;28;20311;-64
2020/12/25 03:33:36;;;;;;;4.75;1.55;;;2.30;96.10;;;;;;5048199;28;20105;-64
2020/12/25 03:36:02;;;;;;;6.80;1.48;;;2.30;95.80;;;;;;5048103;28;20099;-64
2020/12/25 03:38:27;;;;;;;3.38;1.30;;;2.20;96.50;;;;;;5047866;28;20056;-64
2020/12/25 03:40:53;;;;;;;8.93;1.70;;;2.00;95.40;;;;;;5047591;28;20052;-64
2020/12/25 03:43:19;;;;;;;4.05;1.30;;;1.80;96.10;;;;;;5048147;28;20046;-64
2020/12/25 03:45:45;;;;;;;2.75;1.20;;;1.80;96.80;;;;;;5047565;28;20045;-64
2020/12/25 03:48:12;;;;;;;6.25;1.27;;;1.80;97.60;;;;;;5047955;28;20400;-64
2020/12/25 03:50:38;;;;;;;7.88;1.30;;;1.80;97.20;;;;;;5035669;28;20046;-64
2020/12/25 03:53:03;;;;;;;6.38;1.20;;;1.70;97.00;;;;;;5028533;28;20053;-64
2020/12/25 03:55:29;;;;;;;5.05;1.17;;;1.60;96.60;;;;;;5038991;28;20398;-64
2020/12/25 03:57:55;;;;;;;7.35;1.20;;;1.60;96.90;;;;;;5057747;28;20062;-64
2020/12/25 04:00:20;;;;;;;7.32;1.20;;;1.50;97.00;;;;;;5046588;28;20052;-64
2020/12/25 04:02:48;;;;;;;9.45;2.13;;;1.50;97.10;;;;;;5046865;28;20074;-64
2020/12/25 04:05:14;;;;;;;6.68;1.48;;;1.50;97.20;;;;;;5047553;28;20053;-64
2020/12/25 04:07:40;;;;;;;5.30;1.30;;;1.40;97.40;;;;;;5047663;28;20051;-64
2020/12/25 04:10:06;;;;;;;5.85;1.40;;;1.40;97.50;;;;;;5047352;28;20049;-64
2020/12/25 04:12:32;;;;;;;4.35;1.40;;;1.30;97.70;;;;;;5047025;28;20052;-64
2020/12/25 04:14:58;;;;;;;6.57;1.75;;;1.30;97.80;;;;;;5047550;28;20084;-64
2020/12/25 04:17:23;;;;;;;5.38;1.55;;;1.30;98.00;;;;;;5046944;28;20056;-64
2020/12/25 04:19:49;;;;;;;5.75;1.45;;;1.30;97.80;;;;;;5047447;28;20049;-64
2020/12/25 04:22:15;;;;;;;9.23;1.42;;;1.30;97.80;;;;;;5044523;28;20399;-64
2020/12/25 04:24:41;;;;;;;7.55;1.40;;;1.20;97.80;;;;;;5036503;28;20050;-64
2020/12/25 04:27:07;;;;;;;6.70;1.40;;;1.20;98.40;;;;;;5046778;28;20098;-64
2020/12/25 04:29:32;;;;;;;7.35;1.35;;;1.20;98.00;;;;;;5047003;28;20049;-64
2020/12/25 04:31:59;;;;;;;4.90;1.10;;;1.20;98.10;;;;;;5044688;28;20052;-64
2020/12/25 04:34:24;;;;;;;4.45;1.17;;;1.20;97.70;;;;;;5035760;28;20113;-64
2020/12/25 04:36:50;;;;;;;5.07;1.30;;;1.20;97.80;;;;;;5046741;28;20049;-64
2020/12/25 04:39:16;;;;;;;4.15;1.10;;;1.10;97.70;;;;;;5047037;28;20057;-64
2020/12/25 04:41:42;;;;;;;3.28;1.35;;;1.10;97.60;;;;;;5046648;28;20118;-64
2020/12/25 04:44:07;;;;;;;5.13;1.10;;;1.10;97.60;;;;;;5046755;28;20119;-64
2020/12/25 04:46:34;;;;;;;3.10;0.93;;;1.10;97.50;;;;;;5046659;28;20056;-64
2020/12/25 04:49:00;;;;;;;8.20;1.80;;;1.10;97.20;;;;;;5046838;28;20045;-64
2020/12/25 04:51:26;;;;;;;3.85;1.00;;;1.00;97.40;;;;;;5046387;28;20045;-64
2020/12/25 04:53:53;;;;;;;4.70;1.20;;;1.00;97.50;;;;;;5046893;28;20520;-64
2020/12/25 04:56:23;;;;;;;2.92;0.98;;;1.00;98.00;;;;;;5049155;28;20045;-65
2020/12/25 04:58:50;;;;;;;5.22;1.05;;;1.10;97.80;;;;;;5046582;28;20405;-64
2020/12/25 05:01:16;;;;;;;2.80;0.90;;;1.20;98.00;;;;;;5046284;28;20053;-64
2020/12/25 05:03:43;;;;;;;2.95;0.98;;;1.20;97.60;;;;;;5046267;28;20049;-64
2020/12/25 05:06:15;;;;;;;6.93;1.10;;;1.10;97.70;;;;;;5046488;28;20072;-64
2020/12/25 05:08:46;;;;;;;1.42;0.80;;;1.20;97.70;;;;;;5046444;28;20037;-64
2020/12/25 05:11:17;;;;;;;5.00;1.05;;;1.10;97.50;;;;;;5046191;28;20049;-64
2020/12/25 05:13:53;;;;;;;2.22;0.75;;;1.10;97.40;;;;;;5041882;28;20046;-64
2020/12/25 05:16:21;;;;;;;4.72;1.17;;;1.10;97.40;;;;;;5026556;28;20080;-64
2020/12/25 05:18:51;;;;;;;2.90;1.10;;;1.10;97.50;;;;;;5026655;28;20072;-64
2020/12/25 05:21:19;;;;;;;4.45;0.98;;;1.20;97.50;;;;;;5026469;28;20050;-64
2020/12/25 05:23:47;;;;;;;6.05;0.90;;;1.30;97.50;;;;;;5044770;28;20088;-64
2020/12/25 05:26:14;;;;;;;4.47;0.90;;;1.40;97.30;;;;;;5045951;28;20071;-64
2020/12/25 05:28:41;;;;;;;5.43;1.05;;;1.40;97.10;;;;;;5045921;28;20050;-64
2020/12/25 05:31:07;;;;;;;7.95;1.33;;;1.40;97.10;;;;;;5045780;28;20050;-64
2020/12/25 05:33:34;;;;;;;4.68;1.23;;;1.50;96.60;;;;;;5045547;28;20048;-64
2020/12/25 05:36:05;;;;;;;10.93;1.38;;;1.60;96.30;;;;;;5045791;28;20056;-64
2020/12/25 05:38:31;;;;;;;8.85;1.30;;;1.70;96.00;;;;;;5040076;28;20121;-64
2020/12/25 05:41:00;;;;;;;7.82;1.45;;;1.80;95.60;;;;;;5038537;28;20045;-64
2020/12/25 05:43:26;;;;;;;6.13;1.13;;;2.00;95.30;;;;;;5045364;28;20064;-64
2020/12/25 05:45:52;;;;;;;6.15;1.00;;;2.00;95.00;;;;;;5045666;28;20049;-64
2020/12/25 05:48:18;;;;;;;13.40;1.50;;;2.20;94.70;;;;;;5045921;28;20072;-64
2020/12/25 05:50:44;;;;;;;4.95;1.08;;;2.30;94.50;;;;;;5045604;28;20057;-64
2020/12/25 05:53:10;;;;;;;6.65;1.25;;;2.30;94.50;;;;;;5045212;28;20053;-64
2020/12/25 05:55:38;;;;;;;6.97;1.75;;;2.40;94.40;;;;;;5045359;28;20126;-64
2020/12/25 05:58:04;;;;;;;10.75;1.60;;;2.70;94.10;;;;;;5057410;28;20631;-64
2020/12/25 06:00:31;;;;;;;6.63;1.10;;;2.80;93.80;;;;;;5045663;28;20065;-64
2020/12/25 06:02:57;;;;;;;5.40;1.40;;;2.90;93.70;;;;;;5045123;28;20041;-64
2020/12/25 06:05:24;;;;;;;4.68;1.10;;;2.70;93.90;;;;;;5045340;28;20072;-64
2020/12/25 06:07:58;;;;;;;8.25;1.42;;;2.60;94.40;;;;;;5045275;28;20053;-64
2020/12/25 06:10:26;;;;;;;11.27;1.42;;;2.50;94.60;;;;;;5044892;28;20054;-64
2020/12/25 06:12:53;;;;;;;8.38;1.50;;;2.40;94.90;;;;;;5045508;28;20041;-64
2020/12/25 06:15:30;;;;;;;9.77;1.20;;;2.40;95.10;;;;;;5045319;28;20502;-64
2020/12/25 06:18:41;;;;;;;8.00;1.55;;;2.40;95.10;;;;;;5045180;28;20136;-64
2020/12/25 06:21:12;;;;;;;5.43;1.30;;;2.30;95.20;;;;;;5038427;28;20045;-64
2020/12/25 06:23:42;;;;;;;6.18;1.20;;;2.30;95.50;;;;;;5045031;28;20049;-64
2020/12/25 06:26:08;;;;;;;7.97;1.50;;;2.20;95.20;;;;;;5045094;28;20049;-64
2020/12/25 06:28:39;;;;;;;10.23;1.30;;;2.10;95.30;;;;;;5031843;28;20061;-64
2020/12/25 06:31:29;;;;;;;6.90;1.45;;;2.00;95.40;;;;;;5031723;28;20061;-64
2020/12/25 06:33:56;;;;;;;8.90;1.98;;;1.90;95.30;;;;;;5044513;28;20051;-64
2020/12/25 06:36:28;;;;;;;5.43;1.00;;;1.90;95.50;;;;;;5044853;28;20065;-64
2020/12/25 06:38:56;;;;;;;5.28;1.20;;;1.70;95.60;;;;;;5044874;28;20064;-64
2020/12/25 06:41:22;;;;;;;5.18;1.30;;;1.60;95.80;;;;;;5029523;28;20046;-64
2020/12/25 06:43:53;;;;;;;7.07;1.38;;;1.50;95.90;;;;;;5024840;28;20046;-64
2020/12/25 06:46:29;;;;;;;8.57;1.10;;;1.40;96.20;;;;;;5040968;28;20048;-64
2020/12/25 06:49:06;;;;;;;6.07;1.38;;;1.30;96.50;;;;;;5045113;28;20053;-64
2020/12/25 06:51:46;;;;;;;6.63;1.65;;;1.30;96.60;;;;;;5044831;28;20041;-64
2020/12/25 06:54:19;;;;;;;6.07;1.55;;;1.20;96.90;;;;;;5044457;28;20049;-64
2020/12/25 06:56:47;;;;;;;5.35;0.93;;;1.20;97.20;;;;;;5038753;28;20057;-64
2020/12/25 06:59:15;;;;;;;6.93;1.40;;;1.20;97.10;;;;;;5050132;28;20524;-64
2020/12/25 07:01:43;;;;;;;10.55;1.35;;;1.30;97.20;;;;;;5044762;28;20041;-64
2020/12/25 07:04:28;;;;;;;5.93;1.30;;;1.30;97.10;;;;;;5044423;28;20072;-64
2020/12/25 07:07:00;;;;;;;7.68;1.42;;;1.30;97.20;;;;;;5044976;28;20045;-64
2020/12/25 07:09:49;;;;;;;5.30;1.10;;;1.40;97.30;;;;;;5044749;28;20060;-64
2020/12/25 07:12:22;;;;;;;9.70;1.60;;;1.50;97.50;;;;;;5044583;28;20119;-64
2020/12/25 07:14:49;;;;;;;4.82;1.30;;;1.60;97.50;;;;;;5044402;28;20041;-64
2020/12/25 07:17:16;;;;;;;10.80;1.90;;;1.70;97.20;;;;;;5044060;28;20049;-64
2020/12/25 07:19:45;;;;;;;6.30;1.38;;;1.80;97.40;;;;;;5044834;28;20053;-64
2020/12/25 07:22:11;;;;;;;11.32;1.77;;;1.80;96.90;;;;;;5046996;28;20042;-64
2020/12/25 07:24:38;;;;;;;8.63;1.40;;;1.90;96.80;;;;;;5041105;28;20049;-64
2020/12/25 07:27:05;;;;;;;8.70;1.80;;;1.90;96.70;;;;;;5042162;28;20560;-64
2020/12/25 07:29:32;;;;;;;6.85;1.10;;;2.00;96.50;;;;;;5047971;28;20052;-64
2020/12/25 07:31:58;;;;;;;6.07;1.27;;;2.00;96.50;;;;;;5048078;28;20050;-64
2020/12/25 07:34:25;;;;;;;9.68;1.88;;;2.10;96.40;;;;;;5047930;28;20065;-64
2020/12/25 07:36:53;;;;;;;7.35;1.40;;;2.10;96.40;;;;;;5047923;28;20042;-64
2020/12/25 07:39:21;;;;;;;6.35;1.20;;;2.10;96.10;;;;;;5048147;28;20049;-64
2020/12/25 07:41:47;;;;;;;6.25;1.27;;;2.10;96.00;;;;;;5047979;28;20045;-64
2020/12/25 07:44:13;;;;;;;7.88;1.40;;;2.10;96.00;;;;;;5047716;28;20049;-64
2020/12/25 07:46:39;;;;;;;9.63;1.35;;;2.20;95.90;;;;;;5047819;28;20053;-64
2020/12/25 07:49:06;;;;;;;7.13;1.20;;;2.20;95.80;;;;;;5047650;28;20053;-64
2020/12/25 07:51:33;;;;;;;10.95;1.80;;;2.30;96.10;;;;;;5048135;28;20238;-64
2020/12/25 07:54:01;;;;;;;7.95;1.58;;;2.30;95.40;;;;;;5041437;28;20038;-63
2020/12/25 07:56:29;;;;;;;11.18;1.30;;;2.30;95.40;;;;;;5044610;28;20071;-64
2020/12/25 07:58:56;;;;;;;10.18;1.50;;;2.30;95.40;;;;;;5033351;28;20063;-64
2020/12/25 08:01:27;;;;;;;13.48;1.83;;;2.30;95.20;;;;;;5032313;28;20136;-66
2020/12/25 08:03:56;;;;;;;8.10;1.30;;;2.30;95.30;;;;;;5044580;28;20109;-65
2020/12/25 08:06:24;;;;;;;4.72;1.20;;;2.30;95.30;;;;;;5047067;28;20041;-65
2020/12/25 08:09:10;;;;;;;6.90;1.38;;;2.40;95.20;;;;;;5026850;28;20041;-66
2020/12/25 08:11:38;;;;;;;7.30;1.33;;;2.30;95.30;;;;;;5026951;28;20046;-69
2020/12/25 08:14:14;;;;;;;6.82;1.80;;;2.30;95.30;;;;;;5027209;28;20647;-68
2020/12/25 08:16:42;;;;;;;6.30;1.50;;;2.20;95.40;;;;;;5055701;28;20057;-65
2020/12/25 08:19:09;;;;;;;6.32;1.15;;;2.30;95.50;;;;;;5037585;28;20042;-67
2020/12/25 08:21:39;;;;;;;5.93;1.65;;;2.30;95.50;;;;;;5046354;28;20056;-66
2020/12/25 08:24:05;;;;;;;;;;;2.30;95.60;;;;;;5046938;28;20053;-65
2020/12/25 08:26:36;;;;;;;9.85;1.35;;;2.30;95.50;;;;;;5047569;28;19921;-66
2020/12/25 08:29:03;;;;;;;9.82;1.60;;;2.30;95.60;;;;;;5046930;28;20044;-66
2020/12/25 08:31:35;;;;;;;11.55;1.35;;;2.40;95.50;;;;;;5046609;28;20041;-65
2020/12/25 08:34:02;;;;;;;7.75;1.48;;;2.40;95.30;;;;;;5045725;28;20037;-65
2020/12/25 08:36:29;;;;;;;8.65;1.92;;;2.40;95.20;;;;;;5044417;28;20060;-65
2020/12/25 08:38:55;;;;;;;7.65;1.30;;;2.40;95.60;;;;;;5046467;28;20045;-66
2020/12/25 08:41:25;;;;;;;6.88;1.50;;;2.40;95.10;;;;;;5046482;28;20057;-65
2020/12/25 08:43:51;;;;;;;6.35;1.58;;;2.40;95.10;;;;;;5044280;28;20046;-66
2020/12/25 08:46:22;;;;;;;9.63;1.90;;;2.30;95.20;;;;;;5039156;28;20052;-66
2020/12/25 08:48:50;;;;;;;7.47;1.42;;;2.30;95.40;;;;;;5046264;28;20083;-66
2020/12/25 08:51:17;;;;;;;6.22;1.65;;;2.30;95.40;;;;;;5044565;28;20042;-66
2020/12/25 08:53:51;;;;;;;12.15;1.50;;;2.20;95.80;;;;;;5045258;28;20045;-65
2020/12/25 08:56:19;;;;;;;8.43;1.80;;;2.30;95.70;;;;;;5048649;28;20081;-65
2020/12/25 08:59:01;;;;;;;6.97;1.40;;;2.30;96.10;;;;;;5050352;28;20163;-66
2020/12/25 09:01:28;;;;;;;11.25;1.88;;;2.30;96.00;;;;;;5046071;28;20120;-67
2020/12/25 09:03:56;;;;;;;7.38;1.40;;;2.30;96.00;;;;;;5041413;28;20041;-72
2020/12/25 09:06:22;;;;;;;8.65;1.40;;;2.30;96.00;;;;;;5045281;28;20107;-66
2020/12/25 09:08:48;;;;;;;9.48;1.73;;;2.20;96.10;;;;;;5045804;28;20069;-66
2020/12/25 09:11:17;;;;;;;6.53;1.55;;;2.20;96.30;;;;;;5043567;28;20057;-66
2020/12/25 09:13:44;;;;;;;7.18;1.80;;;2.20;96.50;;;;;;5026192;28;20042;-66
2020/12/25 09:16:10;;;;;;;11.02;1.88;;;2.30;96.70;;;;;;5025698;28;20063;-66
2020/12/25 09:18:37;;;;;;;14.02;2.35;;;2.40;96.60;;;;;;5025840;28;20049;-66
2020/12/25 09:21:04;;;;;;;16.58;1.90;;;2.30;96.60;;;;;;5026027;28;20112;-66
2020/12/25 09:23:30;;;;;;;8.75;1.67;;;2.30;96.50;;;;;;5026023;28;20080;-66
2020/12/25 09:25:57;;;;;;;6.50;1.30;;;2.40;96.60;;;;;;5038954;28;20053;-66
2020/12/25 09:28:24;;;;;;;8.95;1.45;;;2.40;96.70;;;;;;5032725;28;20054;-66
2020/12/25 09:30:54;;;;;;;7.47;1.20;;;2.40;96.80;;;;;;5041474;28;20064;-66
2020/12/25 09:33:20;;;;;;;7.85;1.65;;;2.40;96.70;;;;;;5025809;28;20045;-66
2020/12/25 09:35:46;;;;;;;7.93;1.48;;;2.50;96.70;;;;;;5025319;28;20077;-69
2020/12/25 09:38:13;;;;;;;9.25;1.70;;;2.50;96.80;;;;;;5036009;28;20057;-70
2020/12/25 09:40:39;;;;;;;10.00;1.67;;;2.60;97.30;;;;;;5044882;28;20072;-67
2020/12/25 09:43:05;;;;;;;9.43;1.80;;;2.70;96.90;;;;;;5045006;28;20056;-67
2020/12/25 09:45:30;;;;;;;7.93;1.48;;;2.80;96.60;;;;;;5044560;28;20048;-64
2020/12/25 09:47:56;;;;;;;9.55;1.50;;;2.90;96.70;;;;;;5045148;28;20053;-66
2020/12/25 09:50:22;;;;;;;8.18;1.67;;;3.00;96.80;;;;;;5045044;28;20049;-66
2020/12/25 09:52:48;;;;;;;7.65;1.80;;;3.00;96.70;;;;;;5045718;28;20073;-66
2020/12/25 09:55:14;;;;;;;8.63;2.00;;;3.10;96.50;;;;;;5045213;28;20128;-66
2020/12/25 09:57:39;;;;;;;9.63;2.33;;;3.20;96.20;;;;;;5044604;28;20588;-66
2020/12/25 10:00:10;;;;;;;8.73;2.30;;;3.40;95.40;;;;;;5044652;28;20520;-66
2020/12/25 10:02:36;;;;;;;8.27;1.50;;;3.40;95.30;;;;;;5044784;28;20046;-66
2020/12/25 10:05:03;;;;;;;10.68;1.80;;;3.60;94.80;;;;;;5044836;28;20053;-66
2020/12/25 10:07:29;;;;;;;9.32;1.80;;;3.60;94.50;;;;;;5044699;28;20046;-66
2020/12/25 10:09:55;;;;;;;6.32;1.20;;;3.70;94.60;;;;;;5045025;28;20065;-66
2020/12/25 10:12:21;;;;;;;9.88;1.50;;;3.70;94.40;;;;;;5044814;28;20488;-66
2020/12/25 10:14:46;;;;;;;7.57;1.63;;;3.80;94.50;;;;;;5044368;28;20049;-66
2020/12/25 10:17:12;;;;;;;8.50;1.95;;;3.90;93.70;;;;;;5045468;28;20053;-66
2020/12/25 10:19:38;;;;;;;9.30;1.48;;;4.00;93.60;;;;;;5038408;28;20113;-66
2020/12/25 10:22:04;;;;;;;10.45;2.30;;;4.00;94.00;;;;;;5025129;28;20050;-66
2020/12/25 10:24:30;;;;;;;11.25;1.58;;;4.00;93.90;;;;;;5025042;28;20041;-66
2020/12/25 10:26:55;;;;;;;11.60;2.03;;;4.10;94.30;;;;;;5051202;28;20049;-66
2020/12/25 10:29:21;;;;;;;8.18;1.70;;;4.10;94.10;;;;;;5027378;28;20038;-66
2020/12/25 10:31:50;;;;;;;6.97;1.77;;;4.20;93.40;;;;;;5024903;28;20094;-66
2020/12/25 10:34:17;;;;;;;6.38;1.50;;;4.20;93.40;;;;;;5025205;28;20034;-66
2020/12/25 10:36:43;;;;;;;7.75;2.00;;;4.30;93.70;;;;;;5027924;28;20067;-66
2020/12/25 10:39:10;;;;;;;5.47;1.60;;;4.40;93.70;;;;;;5027794;28;20457;-67
2020/12/25 10:41:36;;;;;;;9.98;1.67;;;4.40;93.90;;;;;;5025020;28;20050;-67
2020/12/25 10:44:02;;;;;;;8.60;1.48;;;4.60;93.50;;;;;;5034680;28;20481;-66
2020/12/25 10:46:28;;;;;;;8.00;1.50;;;4.70;93.00;;;;;;5038741;28;20049;-65
2020/12/25 10:48:54;;;;;;;5.68;1.58;;;4.80;92.90;;;;;;5042050;28;20073;-67
2020/12/25 10:51:20;;;;;;;7.70;1.55;;;4.90;92.40;;;;;;5044118;28;20051;-66
2020/12/25 10:53:47;;;;;;;6.00;1.38;;;4.90;92.40;;;;;;5042803;28;20060;-66
2020/12/25 10:56:20;;;;;;;8.77;1.50;;;4.90;92.20;;;;;;5044673;28;20045;-66
2020/12/25 10:58:46;;;;;;;5.30;1.15;;;4.90;92.00;;;;;;5046398;28;20045;-67
2020/12/25 11:01:29;;;;;;;8.75;1.50;;;5.00;92.20;;;;;;5047948;28;20060;-67
2020/12/25 11:03:57;;;;;;;5.97;1.25;;;5.00;92.00;;;;;;5047121;28;20061;-67
2020/12/25 11:06:34;;;;;;;8.45;1.38;;;5.00;92.10;;;;;;5042514;28;20056;-66
2020/12/25 11:09:01;;;;;;;7.00;1.35;;;5.00;92.30;;;;;;5043298;28;20054;-67
2020/12/25 11:11:28;;;;;;;8.43;1.65;;;5.00;92.10;;;;;;5045674;28;20048;-73
2020/12/25 11:13:55;;;;;;;8.05;1.65;;;5.00;92.10;;;;;;5047474;28;20046;-71
2020/12/25 11:16:28;;;;;;;4.40;1.20;;;5.00;92.30;;;;;;5047201;28;20041;-71
2020/12/25 11:18:57;;;;;;;4.50;1.10;;;5.10;91.90;;;;;;5046658;28;20053;-72
2020/12/25 11:21:27;;;;;;;8.60;2.20;;;5.10;92.10;;;;;;5048253;28;20044;-71
2020/12/25 11:23:54;;;;;;;3.45;1.20;;;5.10;92.00;;;;;;5047318;28;20053;-71
2020/12/25 11:26:31;;;;;;;10.70;1.58;;;5.20;92.20;;;;;;5042044;28;20045;-71
2020/12/25 11:28:58;;;;;;;7.47;1.20;;;5.30;92.00;;;;;;5046458;28;20044;-71
2020/12/25 11:31:25;;;;;;;7.72;1.48;;;5.30;91.80;;;;;;5042691;28;20042;-71
2020/12/25 11:33:52;;;;;;;6.30;1.77;;;5.40;91.70;;;;;;5046621;28;20041;-72
2020/12/25 11:36:19;;;;;;;5.53;1.40;;;5.50;91.50;;;;;;5046053;28;20097;-70
2020/12/25 11:38:46;;;;;;;6.28;1.38;;;5.50;91.40;;;;;;5042347;28;20056;-72
2020/12/25 11:41:14;;;;;;;5.30;1.00;;;5.60;91.00;;;;;;5040469;28;20061;-74
2020/12/25 11:43:40;;;;;;;4.82;1.40;;;5.60;91.30;;;;;;5029747;28;20048;-68
2020/12/25 11:46:07;;;;;;;3.00;1.27;;;5.70;91.10;;;;;;5039716;28;20115;-65
2020/12/25 11:48:37;;;;;;;5.57;1.58;;;5.80;91.10;;;;;;5034367;28;20147;-66
2020/12/25 11:51:04;;;;;;;5.70;1.15;;;5.80;91.20;;;;;;5041556;28;20033;-67
2020/12/25 11:53:30;;;;;;;7.15;1.30;;;5.90;90.20;;;;;;5052970;28;20045;-65
2020/12/25 11:55:56;;;;;;;6.80;1.05;;;6.00;90.00;;;;;;5045864;28;20047;-68
2020/12/25 11:58:21;;;;;;;7.55;1.33;;;6.00;89.50;;;;;;5039456;28;20150;-66
2020/12/25 12:00:47;;;;;;;8.80;1.63;;;6.00;89.10;;;;;;5043733;28;20107;-67
2020/12/25 12:03:13;;;;;;;7.63;1.60;;;6.00;87.90;;;;;;5039113;28;20144;-68
2020/12/25 12:05:40;;;;;;;4.20;1.13;;;6.00;89.00;;;;;;5043027;28;20045;-67
2020/12/25 12:08:07;;;;;;;8.25;1.52;;;6.00;87.40;;;;;;5032229;28;20063;-67
2020/12/25 12:10:33;;;;;;;3.88;0.73;;;5.90;87.80;;;;;;5041288;28;20037;-67
2020/12/25 12:12:58;;;;;;;7.18;1.08;;;5.90;87.10;;;;;;5040389;28;20103;-67
2020/12/25 12:15:24;;;;;;;5.65;0.93;;;5.90;86.10;;;;;;5042317;28;20136;-66
2020/12/25 12:17:50;;;;;;;7.20;1.08;;;6.00;86.50;;;;;;5040922;28;20196;-65
2020/12/25 12:20:16;;;;;;;6.68;1.65;;;6.00;87.00;;;;;;5041112;28;20068;-65
2020/12/25 12:22:41;;;;;;;5.63;1.08;;;6.10;86.90;;;;;;5044581;28;20121;-66
2020/12/25 12:25:07;;;;;;;8.65;2.35;;;6.00;87.70;;;;;;5040727;28;20063;-65
2020/12/25 12:27:34;;;;;;;4.93;1.30;;;6.00;87.30;;;;;;5045334;28;20049;-64
2020/12/25 12:30:03;;;;;;;5.90;1.05;;;6.00;87.30;;;;;;5038828;28;20080;-64
2020/12/25 12:32:29;;;;;;;4.93;1.37;;;6.00;87.10;;;;;;5046873;28;20498;-64
2020/12/25 12:34:55;;;;;;;4.05;1.05;;;5.90;87.90;;;;;;5040425;28;20117;-71
2020/12/25 12:37:20;;;;;;;2.58;0.93;;;5.90;88.00;;;;;;5069515;28;20052;-72
2020/12/25 12:39:46;;;;;;;7.18;1.80;;;5.80;88.30;;;;;;5057791;28;20129;-71
2020/12/25 12:42:12;;;;;;;5.55;1.40;;;5.70;88.10;;;;;;5042052;28;20049;-71
2020/12/25 12:44:38;;;;;;;8.48;1.27;;;5.70;87.80;;;;;;5038428;28;68480;-72
2020/12/25 12:47:04;;;;;;;4.20;1.02;;;5.70;88.60;;;;;;5050854;28;20053;-71
2020/12/25 12:49:30;;;;;;;5.78;1.20;;;5.80;88.60;;;;;;5042125;28;20070;-71
2020/12/25 12:51:55;;;;;;;6.38;1.40;;;5.80;87.60;;;;;;5056504;28;20045;-76
2020/12/25 12:54:21;;;;;;;7.95;1.65;;;5.80;86.30;;;;;;5038443;28;20045;-70
2020/12/25 12:56:47;;;;;;;2.92;1.10;;;5.80;86.70;;;;;;5063092;28;20044;-70